createdAt,value
2023-04-03T00:00:28.084Z,46.66
2023-04-03T00:01:28.114Z,44.99
2023-04-03T00:02:28.125Z,50.12
2023-04-03T00:03:28.051Z,47.40
2023-04-03T00:04:28.089Z,51.37
2023-04-03T00:05:28.064Z,51.18
2023-04-03T00:06:28.043Z,50.47
2023-04-03T00:07:28.029Z,47.11
2023-04-03T00:08:27.984Z,52.53
2023-04-03T00:09:27.993Z,50.13
2023-04-03T00:10:27.999Z,50.37
2023-04-03T00:11:27.972Z,53.25
2023-04-03T00:12:27.969Z,47.79
2023-04-03T00:13:27.959Z,45.12
2023-04-03T00:14:27.937Z,51.39
2023-04-03T00:15:27.934Z,53.29
2023-04-03T00:16:27.964Z,50.96
2023-04-03T00:17:27.920Z,45.19
2023-04-03T00:18:27.879Z,52.09
2023-04-03T00:19:27.899Z,47.68
2023-04-03T00:20:27.880Z,47.36
2023-04-03T00:21:27.855Z,48.56
2023-04-03T00:22:27.864Z,46.84
2023-04-03T00:23:27.852Z,47.63
2023-04-03T00:24:27.840Z,52.85
2023-04-03T00:25:27.817Z,53.34
2023-04-03T00:26:27.839Z,48.07
2023-04-03T00:27:27.806Z,49.81
2023-04-03T00:28:27.821Z,52.44
2023-04-03T00:29:27.797Z,54.45
2023-04-03T00:30:27.765Z,48.62
2023-04-03T00:31:27.807Z,56.34
2023-04-03T00:32:27.795Z,48.79
2023-04-03T00:33:27.730Z,49.50
2023-04-03T00:34:27.706Z,52.89
2023-04-03T00:35:27.711Z,50.51
2023-04-03T00:36:27.757Z,46.47
2023-04-03T00:37:27.703Z,50.26
2023-04-03T00:38:27.694Z,47.68
2023-04-03T00:39:27.667Z,50.07
2023-04-03T00:40:27.677Z,45.13
2023-04-03T00:41:27.635Z,48.59
2023-04-03T00:42:27.660Z,46.61
2023-04-03T00:43:27.614Z,53.01
2023-04-03T00:44:27.615Z,52.28
2023-04-03T00:45:27.615Z,56.12
2023-04-03T00:46:27.634Z,50.66
2023-04-03T00:47:27.605Z,47.77
2023-04-03T00:48:27.601Z,47.99
2023-04-03T00:49:27.548Z,49.53
2023-04-03T00:50:27.556Z,53.95
2023-04-03T00:51:27.557Z,56.33
2023-04-03T00:52:27.542Z,50.20
2023-04-03T00:53:27.507Z,47.24
2023-04-03T00:54:28.542Z,51.93
2023-04-03T00:55:27.501Z,54.49
2023-04-03T00:56:27.500Z,49.06
2023-04-03T00:57:27.622Z,47.52
2023-04-03T00:58:27.461Z,52.27
2023-04-03T00:59:27.489Z,50.31
2023-04-03T01:00:27.471Z,48.01
2023-04-03T01:01:27.471Z,48.85
2023-04-03T01:02:27.433Z,50.73
2023-04-03T01:03:27.449Z,47.33
2023-04-03T01:04:27.410Z,46.68
2023-04-03T01:05:27.391Z,50.29
2023-04-03T01:06:27.409Z,48.36
2023-04-03T01:07:27.373Z,57.02
2023-04-03T01:08:27.372Z,48.01
2023-04-03T01:09:27.388Z,51.92
2023-04-03T01:10:27.372Z,53.27
2023-04-03T01:11:27.336Z,56.36
2023-04-03T01:12:27.378Z,48.05
2023-04-03T01:13:27.338Z,45.49
2023-04-03T01:14:27.294Z,52.96
2023-04-03T01:15:27.298Z,46.42
2023-04-03T01:16:27.317Z,53.44
2023-04-03T01:17:27.284Z,52.16
2023-04-03T01:18:27.254Z,48.40
2023-04-03T01:19:27.253Z,53.03
2023-04-03T01:20:27.266Z,48.12
2023-04-03T01:21:27.242Z,52.33
2023-04-03T01:22:27.237Z,49.68
2023-04-03T01:23:27.207Z,55.64
2023-04-03T01:24:27.193Z,47.31
2023-04-03T01:25:27.205Z,49.10
2023-04-03T01:26:27.192Z,47.73
2023-04-03T01:27:27.175Z,51.26
2023-04-03T01:28:27.152Z,50.19
2023-04-03T01:29:27.163Z,54.28
2023-04-03T01:30:27.166Z,51.93
2023-04-03T01:31:27.159Z,54.55
2023-04-03T01:32:27.162Z,52.55
2023-04-03T01:33:27.109Z,49.29
2023-04-03T01:34:27.086Z,53.33
2023-04-03T01:35:27.090Z,48.83
2023-04-03T01:36:27.077Z,45.01
2023-04-03T01:37:27.063Z,52.27
2023-04-03T01:38:27.096Z,47.85
2023-04-03T01:39:27.036Z,49.88
2023-04-03T01:40:27.033Z,56.36
2023-04-03T01:41:27.040Z,56.20
2023-04-03T01:42:27.006Z,53.26
2023-04-03T01:43:27.015Z,54.85
2023-04-03T01:44:27.021Z,54.39
2023-04-03T01:45:26.989Z,53.73
2023-04-03T01:46:26.971Z,53.87
2023-04-03T01:47:27.032Z,54.16
2023-04-03T01:48:26.945Z,51.06
2023-04-03T01:49:26.950Z,50.90
2023-04-03T01:50:26.959Z,51.92
2023-04-03T01:51:26.904Z,55.94
2023-04-03T01:52:26.918Z,58.25
2023-04-03T01:53:26.894Z,52.23
2023-04-03T01:54:26.868Z,56.95
2023-04-03T01:55:26.885Z,54.24
2023-04-03T01:56:26.934Z,55.74
2023-04-03T01:57:26.949Z,52.06
2023-04-03T01:58:26.823Z,57.16
2023-04-03T01:59:26.832Z,51.09
2023-04-03T02:00:26.829Z,53.44
2023-04-03T02:01:26.993Z,52.72
2023-04-03T02:02:26.790Z,56.66
2023-04-03T02:03:26.797Z,53.67
2023-04-03T02:04:26.844Z,45.65
2023-04-03T02:05:26.749Z,56.03
2023-04-03T02:06:26.752Z,50.57
2023-04-03T02:07:26.731Z,49.32
2023-04-03T02:08:26.719Z,58.66
2023-04-03T02:09:26.755Z,47.21
2023-04-03T02:10:26.696Z,49.43
2023-04-03T02:11:26.698Z,54.93
2023-04-03T02:12:26.734Z,48.39
2023-04-03T02:13:26.674Z,50.05
2023-04-03T02:14:26.658Z,54.97
2023-04-03T02:15:26.651Z,57.49
2023-04-03T02:16:26.650Z,57.53
2023-04-03T02:17:26.686Z,53.73
2023-04-03T02:18:26.620Z,56.35
2023-04-03T02:19:26.603Z,56.85
2023-04-03T02:20:26.581Z,53.26
2023-04-03T02:21:26.577Z,51.39
2023-04-03T02:22:26.605Z,50.56
2023-04-03T02:23:26.571Z,47.26
2023-04-03T02:24:26.559Z,54.37
2023-04-03T02:25:26.567Z,56.26
2023-04-03T02:26:26.520Z,49.99
2023-04-03T02:27:26.511Z,51.85
2023-04-03T02:28:26.527Z,55.81
2023-04-03T02:29:26.500Z,54.82
2023-04-03T02:30:26.487Z,53.81
2023-04-03T02:31:26.510Z,53.98
2023-04-03T02:32:26.478Z,46.05
2023-04-03T02:33:26.443Z,50.12
2023-04-03T02:34:26.469Z,57.91
2023-04-03T02:35:26.464Z,56.29
2023-04-03T02:36:26.411Z,55.61
2023-04-03T02:37:26.423Z,51.50
2023-04-03T02:38:26.404Z,54.40
2023-04-03T02:39:26.389Z,50.55
2023-04-03T02:40:26.372Z,55.26
2023-04-03T02:41:26.356Z,52.24
2023-04-03T02:42:26.363Z,55.35
2023-04-03T02:43:26.347Z,53.77
2023-04-03T02:44:26.342Z,55.83
2023-04-03T02:45:26.305Z,56.53
2023-04-03T02:46:26.350Z,57.23
2023-04-03T02:47:26.329Z,59.39
2023-04-03T02:48:26.281Z,58.15
2023-04-03T02:49:26.295Z,58.46
2023-04-03T02:50:26.276Z,56.58
2023-04-03T02:51:26.251Z,54.70
2023-04-03T02:52:26.258Z,54.84
2023-04-03T02:53:26.239Z,54.98
2023-04-03T02:54:26.219Z,56.05
2023-04-03T02:55:26.236Z,57.28
2023-04-03T02:56:26.203Z,56.74
2023-04-03T02:57:26.213Z,57.63
2023-04-03T02:58:26.202Z,56.74
2023-04-03T02:59:26.183Z,57.76
2023-04-03T03:00:26.180Z,57.23
2023-04-03T03:01:26.184Z,55.74
2023-04-03T03:02:26.153Z,56.59
2023-04-03T03:03:26.148Z,56.72
2023-04-03T03:04:26.139Z,60.23
2023-04-03T03:05:26.115Z,60.62
2023-04-03T03:06:26.134Z,56.10
2023-04-03T03:07:26.101Z,56.75
2023-04-03T03:08:26.072Z,58.46
2023-04-03T03:09:26.075Z,59.27
2023-04-03T03:10:26.071Z,57.81
2023-04-03T03:11:26.083Z,59.60
2023-04-03T03:12:26.070Z,57.70
2023-04-03T03:13:26.034Z,58.14
2023-04-03T03:14:26.009Z,56.98
2023-04-03T03:15:26.019Z,60.27
2023-04-03T03:16:26.111Z,61.92
2023-04-03T03:17:26.004Z,56.53
2023-04-03T03:18:25.975Z,59.87
2023-04-03T03:19:25.969Z,57.59
2023-04-03T03:20:25.959Z,58.59
2023-04-03T03:21:25.939Z,59.01
2023-04-03T03:22:25.977Z,61.36
2023-04-03T03:23:25.909Z,58.99
2023-04-03T03:24:25.912Z,59.90
2023-04-03T03:25:25.939Z,62.18
2023-04-03T03:26:25.876Z,59.69
2023-04-03T03:27:25.872Z,59.26
2023-04-03T03:28:25.874Z,59.76
2023-04-03T03:29:25.878Z,59.98
2023-04-03T03:30:25.828Z,60.96
2023-04-03T03:31:25.913Z,62.61
2023-04-03T03:32:57.750Z,60.93
2023-04-03T03:33:25.821Z,61.57
2023-04-03T03:34:25.805Z,62.07
2023-04-03T03:35:25.781Z,63.17
2023-04-03T03:36:25.919Z,60.55
2023-04-03T03:37:25.749Z,57.46
2023-04-03T03:38:25.753Z,61.58
2023-04-03T03:39:25.758Z,61.42
2023-04-03T03:40:25.762Z,60.13
2023-04-03T03:41:25.701Z,61.03
2023-04-03T03:42:25.710Z,64.66
2023-04-03T03:43:25.722Z,63.27
2023-04-03T03:44:25.689Z,60.86
2023-04-03T03:45:25.721Z,60.28
2023-04-03T03:46:25.676Z,60.94
2023-04-03T03:47:25.706Z,61.45
2023-04-03T03:48:25.621Z,59.58
2023-04-03T03:49:25.653Z,61.65
2023-04-03T03:50:25.645Z,61.58
2023-04-03T03:51:25.616Z,61.21
2023-04-03T03:52:25.640Z,59.48
2023-04-03T03:53:25.597Z,60.14
2023-04-03T03:54:25.606Z,62.29
2023-04-03T03:55:25.650Z,60.71
2023-04-03T03:56:25.561Z,61.03
2023-04-03T03:57:25.578Z,61.37
2023-04-03T03:58:25.549Z,61.99
2023-04-03T03:59:26.566Z,60.92
2023-04-03T04:00:25.557Z,61.75
2023-04-03T04:01:25.506Z,61.25
2023-04-03T04:02:25.604Z,62.64
2023-04-03T04:03:25.522Z,58.65
2023-04-03T04:04:25.491Z,59.26
2023-04-03T04:05:25.488Z,61.90
2023-04-03T04:06:25.488Z,62.34
2023-04-03T04:07:25.511Z,59.76
2023-04-03T04:08:25.429Z,57.99
2023-04-03T04:09:25.487Z,60.53
2023-04-03T04:10:25.421Z,62.44
2023-04-03T04:11:25.392Z,60.29
2023-04-03T04:12:25.408Z,62.37
2023-04-03T04:13:25.422Z,62.53
2023-04-03T04:14:25.407Z,64.21
2023-04-03T04:15:25.368Z,62.76
2023-04-03T04:16:25.433Z,62.13
2023-04-03T04:17:26.370Z,61.61
2023-04-03T04:18:25.375Z,63.73
2023-04-03T04:19:25.372Z,62.70
2023-04-03T04:20:25.320Z,62.84
2023-04-03T04:21:25.288Z,62.78
2023-04-03T04:22:25.293Z,61.64
2023-04-03T04:23:26.299Z,64.77
2023-04-03T04:24:25.285Z,60.87
2023-04-03T04:25:25.302Z,63.23
2023-04-03T04:26:25.284Z,64.05
2023-04-03T04:27:25.256Z,64.25
2023-04-03T04:28:25.252Z,64.95
2023-04-03T04:29:25.246Z,63.33
2023-04-03T04:30:25.246Z,61.42
2023-04-03T04:31:25.274Z,62.92
2023-04-03T04:32:25.190Z,64.03
2023-04-03T04:33:25.234Z,67.43
2023-04-03T04:34:25.173Z,62.97
2023-04-03T04:35:25.156Z,63.23
2023-04-03T04:36:25.182Z,62.15
2023-04-03T04:37:25.169Z,61.54
2023-04-03T04:38:25.146Z,65.67
2023-04-03T04:39:25.121Z,62.45
2023-04-03T04:40:25.118Z,65.36
2023-04-03T04:41:25.102Z,65.86
2023-04-03T04:42:25.101Z,63.46
2023-04-03T04:43:25.119Z,62.81
2023-04-03T04:44:25.078Z,63.58
2023-04-03T04:45:25.067Z,64.47
2023-04-03T04:46:25.082Z,63.25
2023-04-03T04:47:25.060Z,62.03
2023-04-03T04:48:25.038Z,61.84
2023-04-03T04:49:25.037Z,62.01
2023-04-03T04:50:25.024Z,62.86
2023-04-03T04:51:25.015Z,61.73
2023-04-03T04:52:25.009Z,62.79
2023-04-03T04:53:24.992Z,63.88
2023-04-03T04:54:24.957Z,62.91
2023-04-03T04:55:24.936Z,64.70
2023-04-03T04:56:24.969Z,63.37
2023-04-03T04:57:24.946Z,61.85
2023-04-03T04:58:24.935Z,62.16
2023-04-03T04:59:24.921Z,63.77
2023-04-03T05:00:24.914Z,61.24
2023-04-03T05:01:24.896Z,64.46
2023-04-03T05:02:24.918Z,64.19
2023-04-03T05:03:24.894Z,64.93
2023-04-03T05:04:24.913Z,64.30
2023-04-03T05:05:24.821Z,64.12
2023-04-03T05:06:24.829Z,64.26
2023-04-03T05:07:24.852Z,63.32
2023-04-03T05:08:24.837Z,63.33
2023-04-03T05:09:24.812Z,61.38
2023-04-03T05:10:24.785Z,61.04
2023-04-03T05:11:25.142Z,65.37
2023-04-03T05:12:24.779Z,61.56
2023-04-03T05:13:24.783Z,62.00
2023-04-03T05:14:24.764Z,63.61
2023-04-03T05:15:24.722Z,60.64
2023-04-03T05:16:24.768Z,62.39
2023-04-03T05:17:24.745Z,62.38
2023-04-03T05:18:24.724Z,62.80
2023-04-03T05:19:24.703Z,63.49
2023-04-03T05:20:24.697Z,63.24
2023-04-03T05:21:24.637Z,63.52
2023-04-03T05:22:24.680Z,63.07
2023-04-03T05:23:24.674Z,62.52
2023-04-03T05:24:24.642Z,62.96
2023-04-03T05:25:24.617Z,61.51
2023-04-03T05:26:24.617Z,63.76
2023-04-03T05:27:24.621Z,65.35
2023-04-03T05:28:24.598Z,65.69
2023-04-03T05:29:24.628Z,63.75
2023-04-03T05:30:24.586Z,63.09
2023-04-03T05:31:24.607Z,62.69
2023-04-03T05:32:24.566Z,63.81
2023-04-03T05:33:24.564Z,64.74
2023-04-03T05:34:24.522Z,64.11
2023-04-03T05:35:24.508Z,65.02
2023-04-03T05:36:24.554Z,63.54
2023-04-03T05:37:24.507Z,63.94
2023-04-03T05:38:24.492Z,65.18
2023-04-03T05:39:24.457Z,63.92
2023-04-03T05:40:24.450Z,65.61
2023-04-03T05:41:24.454Z,64.68
2023-04-03T05:42:24.430Z,63.77
2023-04-03T05:43:24.429Z,65.14
2023-04-03T05:44:24.433Z,64.81
2023-04-03T05:45:24.394Z,63.42
2023-04-03T05:46:24.530Z,64.85
2023-04-03T05:47:24.429Z,62.99
2023-04-03T05:48:24.394Z,64.10
2023-04-03T05:49:24.350Z,65.44
2023-04-03T05:50:24.356Z,66.13
2023-04-03T05:51:24.357Z,65.05
2023-04-03T05:52:24.318Z,64.12
2023-04-03T05:53:24.323Z,65.62
2023-04-03T05:54:24.371Z,64.57
2023-04-03T05:55:24.273Z,64.24
2023-04-03T05:56:24.276Z,64.48
2023-04-03T05:57:24.355Z,61.95
2023-04-03T05:58:24.275Z,63.60
2023-04-03T05:59:24.248Z,61.79
2023-04-03T06:00:24.272Z,62.16
2023-04-03T06:01:24.220Z,64.00
2023-04-03T06:02:24.285Z,62.99
2023-04-03T06:03:24.386Z,62.93
2023-04-03T06:04:24.231Z,61.77
2023-04-03T06:05:24.170Z,64.43
2023-04-03T06:06:24.189Z,60.71
2023-04-03T06:07:24.217Z,63.08
2023-04-03T06:08:24.173Z,64.23
2023-04-03T06:09:24.133Z,61.17
2023-04-03T06:10:24.155Z,62.16
2023-04-03T06:11:24.164Z,62.54
2023-04-03T06:12:24.137Z,62.65
2023-04-03T06:13:24.133Z,64.37
2023-04-03T06:14:24.090Z,63.49
2023-04-03T06:15:24.114Z,62.62
2023-04-03T06:16:24.108Z,66.13
2023-04-03T06:17:24.128Z,64.74
2023-04-03T06:18:24.078Z,64.42
2023-04-03T06:19:24.038Z,62.52
2023-04-03T06:20:25.056Z,63.17
2023-04-03T06:21:24.052Z,64.58
2023-04-03T06:22:24.015Z,62.33
2023-04-03T06:23:23.993Z,62.03
2023-04-03T06:24:24.023Z,61.31
2023-04-03T06:25:24.011Z,60.79
2023-04-03T06:26:23.975Z,62.90
2023-04-03T06:27:23.993Z,62.50
2023-04-03T06:28:23.988Z,63.96
2023-04-03T06:29:23.941Z,64.97
2023-04-03T06:30:23.937Z,62.22
2023-04-03T06:31:24.015Z,63.15
2023-04-03T06:32:23.891Z,61.79
2023-04-03T06:33:23.916Z,62.92
2023-04-03T06:34:23.903Z,61.75
2023-04-03T06:35:23.877Z,61.45
2023-04-03T06:36:23.894Z,58.45
2023-04-03T06:37:23.903Z,62.40
2023-04-03T06:38:23.874Z,63.31
2023-04-03T06:39:23.853Z,61.38
2023-04-03T06:40:23.828Z,60.87
2023-04-03T06:41:23.850Z,62.40
2023-04-03T06:42:23.819Z,64.03
2023-04-03T06:43:24.635Z,66.61
2023-04-03T06:44:24.794Z,65.54
2023-04-03T06:45:23.784Z,60.87
2023-04-03T06:46:23.832Z,63.72
2023-04-03T06:47:23.728Z,64.31
2023-04-03T06:48:23.753Z,62.52
2023-04-03T06:49:23.743Z,60.25
2023-04-03T06:50:24.709Z,61.43
2023-04-03T06:51:23.767Z,59.67
2023-04-03T06:52:23.708Z,61.47
2023-04-03T06:53:23.679Z,60.82
2023-04-03T06:54:23.679Z,61.97
2023-04-03T06:55:23.721Z,60.72
2023-04-03T06:56:23.791Z,61.73
2023-04-03T06:57:23.666Z,59.90
2023-04-03T06:58:23.647Z,61.59
2023-04-03T06:59:23.633Z,60.05
2023-04-03T07:00:23.621Z,60.81
2023-04-03T07:01:23.675Z,59.68
2023-04-03T07:02:23.642Z,59.21
2023-04-03T07:03:23.568Z,59.73
2023-04-03T07:04:23.620Z,60.24
2023-04-03T07:05:23.542Z,58.61
2023-04-03T07:06:23.543Z,61.67
2023-04-03T07:07:24.559Z,61.61
2023-04-03T07:08:23.539Z,62.29
2023-04-03T07:09:23.506Z,58.68
2023-04-03T07:10:23.575Z,59.24
2023-04-03T07:11:23.535Z,58.79
2023-04-03T07:12:23.527Z,61.34
2023-04-03T07:13:23.474Z,60.67
2023-04-03T07:14:23.489Z,59.75
2023-04-03T07:15:23.485Z,59.30
2023-04-03T07:16:23.476Z,60.61
2023-04-03T07:17:23.418Z,61.46
2023-04-03T07:18:23.440Z,61.23
2023-04-03T07:19:23.449Z,59.94
2023-04-03T07:20:23.388Z,59.96
2023-04-03T07:21:23.429Z,60.96
2023-04-03T07:22:23.413Z,58.54
2023-04-03T07:23:23.358Z,59.92
2023-04-03T07:24:23.377Z,60.97
2023-04-03T07:25:23.365Z,60.72
2023-04-03T07:26:23.337Z,60.10
2023-04-03T07:27:23.325Z,56.35
2023-04-03T07:28:23.344Z,60.91
2023-04-03T07:29:23.285Z,59.33
2023-04-03T07:30:23.353Z,62.26
2023-04-03T07:31:23.347Z,61.53
2023-04-03T07:32:23.287Z,60.09
2023-04-03T07:33:23.268Z,59.28
2023-04-03T07:34:23.264Z,60.81
2023-04-03T07:35:23.268Z,61.61
2023-04-03T07:36:23.304Z,62.44
2023-04-03T07:37:23.262Z,61.53
2023-04-03T07:38:23.244Z,57.72
2023-04-03T07:39:23.207Z,59.30
2023-04-03T07:40:23.293Z,58.17
2023-04-03T07:41:23.195Z,60.29
2023-04-03T07:42:23.208Z,57.85
2023-04-03T07:43:23.142Z,61.33
2023-04-03T07:44:23.142Z,59.89
2023-04-03T07:45:23.132Z,61.09
2023-04-03T07:46:23.158Z,60.46
2023-04-03T07:47:23.235Z,59.22
2023-04-03T07:48:23.124Z,61.89
2023-04-03T07:49:23.089Z,60.18
2023-04-03T07:50:23.104Z,58.96
2023-04-03T07:51:23.094Z,57.96
2023-04-03T07:52:23.075Z,58.41
2023-04-03T07:53:23.063Z,59.22
2023-04-03T07:54:23.052Z,59.36
2023-04-03T07:55:23.011Z,59.79
2023-04-03T07:56:23.020Z,59.23
2023-04-03T07:57:23.055Z,61.57
2023-04-03T07:58:23.152Z,60.44
2023-04-03T07:59:22.995Z,58.43
2023-04-03T08:00:23.043Z,57.53
2023-04-03T08:01:22.969Z,58.18
2023-04-03T08:02:22.950Z,61.69
2023-04-03T08:03:23.060Z,60.64
2023-04-03T08:04:23.040Z,60.93
2023-04-03T08:05:22.904Z,60.34
2023-04-03T08:07:23.938Z,58.14
2023-04-03T08:08:22.908Z,60.14
2023-04-03T08:09:22.899Z,61.55
2023-04-03T08:10:22.921Z,59.95
2023-04-03T08:11:22.849Z,58.29
2023-04-03T08:12:22.849Z,58.18
2023-04-03T08:13:22.893Z,58.55
2023-04-03T08:14:22.844Z,59.42
2023-04-03T08:15:22.813Z,58.34
2023-04-03T08:16:22.870Z,60.61
2023-04-03T08:17:22.812Z,59.63
2023-04-03T08:18:22.795Z,60.77
2023-04-03T08:19:26.494Z,59.92
2023-04-03T08:20:23.810Z,62.05
2023-04-03T08:21:22.769Z,61.36
2023-04-03T08:22:22.762Z,60.00
2023-04-03T08:23:22.730Z,60.48
2023-04-03T08:24:22.752Z,61.85
2023-04-03T08:25:22.696Z,59.20
2023-04-03T08:26:23.718Z,61.11
2023-04-03T08:27:22.728Z,61.49
2023-04-03T08:28:22.704Z,57.25
2023-04-03T08:29:22.674Z,60.41
2023-04-03T08:30:22.734Z,58.07
2023-04-03T08:31:22.761Z,58.90
2023-04-03T08:32:22.654Z,58.69
2023-04-03T08:33:22.669Z,58.33
2023-04-03T08:34:22.635Z,60.68
2023-04-03T08:35:22.616Z,62.33
2023-04-03T08:36:22.711Z,62.80
2023-04-03T08:37:22.644Z,59.70
2023-04-03T08:38:22.586Z,59.55
2023-04-03T08:39:22.546Z,62.74
2023-04-03T08:40:22.569Z,61.18
2023-04-03T08:41:22.557Z,60.29
2023-04-03T08:42:22.542Z,57.93
2023-04-03T08:43:22.583Z,63.09
2023-04-03T08:44:22.516Z,59.52
2023-04-03T08:45:22.552Z,60.00
2023-04-03T08:46:22.720Z,60.08
2023-04-03T08:47:22.538Z,59.50
2023-04-03T08:48:22.487Z,60.58
2023-04-03T08:49:22.492Z,60.13
2023-04-03T08:50:22.470Z,60.34
2023-04-03T08:51:22.476Z,61.18
2023-04-03T08:52:22.463Z,57.98
2023-04-03T08:53:22.440Z,60.69
2023-04-03T08:54:22.415Z,62.50
2023-04-03T08:55:22.415Z,58.95
2023-04-03T08:56:22.395Z,59.37
2023-04-03T08:57:22.417Z,58.55
2023-04-03T08:58:22.391Z,63.81
2023-04-03T08:59:22.368Z,62.28
2023-04-03T09:00:22.366Z,64.13
2023-04-03T09:01:22.421Z,61.23
2023-04-03T09:02:22.535Z,59.97
2023-04-03T09:03:22.391Z,62.64
2023-04-03T09:04:22.373Z,64.11
2023-04-03T09:05:24.084Z,59.71
2023-04-03T09:06:22.285Z,59.88
2023-04-03T09:07:22.328Z,59.11
2023-04-03T09:08:22.293Z,60.88
2023-04-03T09:09:22.251Z,61.45
2023-04-03T09:10:22.250Z,58.68
2023-04-03T09:11:22.277Z,64.18
2023-04-03T09:12:22.243Z,61.42
2023-04-03T09:13:22.254Z,64.13
2023-04-03T09:14:22.228Z,62.85
2023-04-03T09:15:31.324Z,60.14
2023-04-03T09:16:24.219Z,59.31
2023-04-03T09:17:22.228Z,63.24
2023-04-03T09:18:22.302Z,60.16
2023-04-03T09:19:22.185Z,60.89
2023-04-03T09:20:22.176Z,57.36
2023-04-03T09:21:22.164Z,58.07
2023-04-03T09:22:22.128Z,59.64
2023-04-03T09:23:22.099Z,58.67
2023-04-03T09:24:22.108Z,60.19
2023-04-03T09:25:22.112Z,60.38
2023-04-03T09:26:22.096Z,59.58
2023-04-03T09:27:22.117Z,63.20
2023-04-03T09:28:22.075Z,58.11
2023-04-03T09:29:22.036Z,57.37
2023-04-03T09:30:22.075Z,60.29
2023-04-03T09:31:22.112Z,61.43
2023-04-03T09:32:22.052Z,61.09
2023-04-03T09:33:55.994Z,58.60
2023-04-03T09:34:22.005Z,60.32
2023-04-03T09:35:27.300Z,58.55
2023-04-03T09:36:24.057Z,59.70
2023-04-03T09:37:21.962Z,59.73
2023-04-03T09:38:21.989Z,57.44
2023-04-03T09:39:21.965Z,60.39
2023-04-03T09:40:21.985Z,58.11
2023-04-03T09:41:21.921Z,57.84
2023-04-03T09:42:21.933Z,58.04
2023-04-03T09:43:21.936Z,59.12
2023-04-03T09:44:21.894Z,60.29
2023-04-03T09:45:21.886Z,56.69
2023-04-03T09:46:21.911Z,59.15
2023-04-03T09:47:21.884Z,57.84
2023-04-03T09:48:22.099Z,58.79
2023-04-03T09:49:21.943Z,61.55
2023-04-03T09:50:21.863Z,59.74
2023-04-03T09:51:21.815Z,61.28
2023-04-03T09:52:21.815Z,61.68
2023-04-03T09:53:21.807Z,57.63
2023-04-03T09:54:21.781Z,59.44
2023-04-03T09:55:21.809Z,60.58
2023-04-03T09:56:21.840Z,60.58
2023-04-03T09:57:21.816Z,58.39
2023-04-03T09:58:21.777Z,62.51
2023-04-03T09:59:21.771Z,59.47
2023-04-03T10:00:21.720Z,62.03
2023-04-03T10:01:21.786Z,62.25
2023-04-03T10:02:21.730Z,58.38
2023-04-03T10:03:21.689Z,60.01
2023-04-03T10:04:21.693Z,59.60
2023-04-03T10:05:21.814Z,60.69
2023-04-03T10:06:21.659Z,58.32
2023-04-03T10:07:21.640Z,59.77
2023-04-03T10:08:21.674Z,60.75
2023-04-03T10:09:21.636Z,61.14
2023-04-03T10:10:21.643Z,58.74
2023-04-03T10:11:21.637Z,58.90
2023-04-03T10:12:21.592Z,57.95
2023-04-03T10:13:21.865Z,60.54
2023-04-03T10:14:21.596Z,59.10
2023-04-03T10:15:22.560Z,57.66
2023-04-03T10:16:21.569Z,59.05
2023-04-03T10:17:21.542Z,60.49
2023-04-03T10:18:24.691Z,59.28
2023-04-03T10:19:22.524Z,58.47
2023-04-03T10:20:23.543Z,58.48
2023-04-03T10:21:27.423Z,59.68
2023-04-03T10:22:23.503Z,60.60
2023-04-03T10:23:21.461Z,60.95
2023-04-03T10:24:21.453Z,59.68
2023-04-03T10:25:21.457Z,59.91
2023-04-03T10:26:21.457Z,57.03
2023-04-03T10:27:21.438Z,58.46
2023-04-03T10:28:21.461Z,58.76
2023-04-03T10:29:21.405Z,58.98
2023-04-03T10:30:21.390Z,57.30
2023-04-03T10:31:21.410Z,59.97
2023-04-03T10:32:21.452Z,60.89
2023-04-03T10:33:21.350Z,59.40
2023-04-03T10:34:21.344Z,55.89
2023-04-03T10:35:21.333Z,61.06
2023-04-03T10:36:21.329Z,58.14
2023-04-03T10:37:21.396Z,55.31
2023-04-03T10:38:21.316Z,57.47
2023-04-03T10:39:21.310Z,60.16
2023-04-03T10:40:21.267Z,58.10
2023-04-03T10:41:21.255Z,59.83
2023-04-03T10:42:21.317Z,59.93
2023-04-03T10:43:21.267Z,59.13
2023-04-03T10:44:21.225Z,59.66
2023-04-03T10:45:21.232Z,58.16
2023-04-03T10:46:21.253Z,58.90
2023-04-03T10:47:21.213Z,59.05
2023-04-03T10:48:21.189Z,60.43
2023-04-03T10:49:21.193Z,59.27
2023-04-03T10:50:21.157Z,60.28
2023-04-03T10:51:21.150Z,59.86
2023-04-03T10:52:21.146Z,60.80
2023-04-03T10:53:21.221Z,58.74
2023-04-03T10:54:21.126Z,56.95
2023-04-03T10:55:21.122Z,59.54
2023-04-03T10:56:21.106Z,58.55
2023-04-03T10:57:21.115Z,60.53
2023-04-03T10:58:21.074Z,60.33
2023-04-03T10:59:21.071Z,61.89
2023-04-03T11:00:21.057Z,57.69
2023-04-03T11:01:21.065Z,58.88
2023-04-03T11:02:21.328Z,60.05
2023-04-03T11:03:21.120Z,59.47
2023-04-03T11:04:21.002Z,61.01
2023-04-03T11:05:21.011Z,59.69
2023-04-03T11:06:21.000Z,62.12
2023-04-03T11:07:20.968Z,60.62
2023-04-03T11:08:21.009Z,58.24
2023-04-03T11:09:21.051Z,59.66
2023-04-03T11:10:20.938Z,59.32
2023-04-03T11:11:20.932Z,57.25
2023-04-03T11:12:20.933Z,56.09
2023-04-03T11:13:20.915Z,60.65
2023-04-03T11:14:20.910Z,58.35
2023-04-03T11:15:20.904Z,62.26
2023-04-03T11:16:20.914Z,59.34
2023-04-03T11:17:20.852Z,59.35
2023-04-03T11:18:20.858Z,58.50
2023-04-03T11:19:20.840Z,58.72
2023-04-03T11:20:20.828Z,58.37
2023-04-03T11:21:20.836Z,55.91
2023-04-03T11:22:20.834Z,61.97
2023-04-03T11:23:20.784Z,63.16
2023-04-03T11:24:20.774Z,59.44
2023-04-03T11:25:20.868Z,59.66
2023-04-03T11:26:20.740Z,59.34
2023-04-03T11:27:21.773Z,59.86
2023-04-03T11:28:20.745Z,59.97
2023-04-03T11:29:34.128Z,61.78
2023-04-03T11:30:22.721Z,59.89
2023-04-03T11:31:20.709Z,63.23
2023-04-03T11:32:20.676Z,59.04
2023-04-03T11:33:20.677Z,56.51
2023-04-03T11:34:20.680Z,58.19
2023-04-03T11:35:20.664Z,58.70
2023-04-03T11:36:29.265Z,61.08
2023-04-03T11:37:22.627Z,60.96
2023-04-03T11:38:20.608Z,58.52
2023-04-03T11:39:20.620Z,58.92
2023-04-03T11:40:20.621Z,58.89
2023-04-03T11:41:20.605Z,60.29
2023-04-03T11:42:20.582Z,61.34
2023-04-03T11:43:20.559Z,60.32
2023-04-03T11:44:20.561Z,62.09
2023-04-03T11:45:20.544Z,58.45
2023-04-03T11:46:20.551Z,60.23
2023-04-03T11:47:20.531Z,59.80
2023-04-03T11:48:24.801Z,59.94
2023-04-03T11:49:21.500Z,60.23
2023-04-03T11:50:20.481Z,58.09
2023-04-03T11:51:20.467Z,59.19
2023-04-03T11:52:20.499Z,62.45
2023-04-03T11:53:20.439Z,62.81
2023-04-03T11:54:20.446Z,60.06
2023-04-03T11:55:20.448Z,60.07
2023-04-03T11:56:20.428Z,61.31
2023-04-03T11:57:20.544Z,64.58
2023-04-03T11:58:20.407Z,60.38
2023-04-03T11:59:20.373Z,62.80
2023-04-03T12:00:20.368Z,60.85
2023-04-03T12:01:20.367Z,62.44
2023-04-03T12:02:20.361Z,62.15
2023-04-03T12:03:20.354Z,59.51
2023-04-03T12:04:20.405Z,59.65
2023-04-03T12:05:20.305Z,61.48
2023-04-03T12:06:20.312Z,61.41
2023-04-03T12:07:20.302Z,60.28
2023-04-03T12:08:20.284Z,60.14
2023-04-03T12:09:20.252Z,60.63
2023-04-03T12:10:31.136Z,60.10
2023-04-03T12:11:22.235Z,61.95
2023-04-03T12:12:20.246Z,60.17
2023-04-03T12:13:20.330Z,60.47
2023-04-03T12:14:20.204Z,60.15
2023-04-03T12:15:20.231Z,62.13
2023-04-03T12:16:20.242Z,62.28
2023-04-03T12:17:20.171Z,59.67
2023-04-03T12:18:20.179Z,60.29
2023-04-03T12:19:22.235Z,59.53
2023-04-03T12:20:21.127Z,61.50
2023-04-03T12:21:20.149Z,60.14
2023-04-03T12:22:20.121Z,62.23
2023-04-03T12:23:20.118Z,59.97
2023-04-03T12:24:20.114Z,59.09
2023-04-03T12:25:20.078Z,57.30
2023-04-03T12:26:20.064Z,61.06
2023-04-03T12:27:20.068Z,64.09
2023-04-03T12:28:20.075Z,60.13
2023-04-03T12:29:20.125Z,61.92
2023-04-03T12:30:20.066Z,61.11
2023-04-03T12:31:20.052Z,57.69
2023-04-03T12:32:20.013Z,60.03
2023-04-03T12:33:20.033Z,60.17
2023-04-03T12:34:19.974Z,59.24
2023-04-03T12:35:20.013Z,59.76
2023-04-03T12:36:20.010Z,62.14
2023-04-03T12:37:20.930Z,61.28
2023-04-03T12:38:19.951Z,59.62
2023-04-03T12:39:19.962Z,60.27
2023-04-03T12:40:19.927Z,59.35
2023-04-03T12:41:19.922Z,58.45
2023-04-03T12:42:19.952Z,58.97
2023-04-03T12:43:19.885Z,60.09
2023-04-03T12:44:19.872Z,60.83
2023-04-03T12:45:19.986Z,61.63
2023-04-03T12:46:20.014Z,61.65
2023-04-03T12:47:19.943Z,59.49
2023-04-03T12:48:19.879Z,61.37
2023-04-03T12:49:19.836Z,60.56
2023-04-03T12:50:19.806Z,60.57
2023-04-03T12:51:19.804Z,59.22
2023-04-03T12:52:19.801Z,59.50
2023-04-03T12:53:19.784Z,60.09